createdAt,value
2022-08-31T00:03:15.271Z,17.50
2022-08-31T00:08:17.918Z,23.40
2022-08-31T00:13:20.163Z,26.03
2022-08-31T00:18:23.432Z,33.33
2022-08-31T00:23:26.155Z,31.77
2022-08-31T00:28:28.466Z,27.27
2022-08-31T00:33:30.677Z,27.03
2022-08-31T00:38:34.592Z,29.17
2022-08-31T00:43:48.657Z,26.63
2022-08-31T00:49:12.539Z,17.30
2022-08-31T00:54:19.389Z,11.03
2022-08-31T00:59:22.325Z,8.10
2022-08-31T01:04:24.580Z,7.60
2022-08-31T01:09:27.819Z,6.23
2022-08-31T01:14:30.333Z,6.10
2022-08-31T01:19:35.545Z,5.77
2022-08-31T01:24:39.963Z,6.60
2022-08-31T01:29:42.357Z,6.30
2022-08-31T01:34:44.587Z,5.80
2022-08-31T01:39:47.061Z,6.20
2022-08-31T01:44:49.460Z,5.80
2022-08-31T01:49:51.825Z,5.93
2022-08-31T01:54:58.344Z,6.87
2022-08-31T02:00:04.428Z,5.40
2022-08-31T02:05:22.938Z,5.67
2022-08-31T02:10:25.716Z,6.00
2022-08-31T02:15:27.975Z,5.83
2022-08-31T02:20:30.428Z,6.00
2022-08-31T02:25:33.146Z,6.57
2022-08-31T02:30:36.883Z,5.60
2022-08-31T02:35:39.247Z,6.00
2022-08-31T02:40:42.138Z,5.93
2022-08-31T02:45:45.530Z,6.17
2022-08-31T02:51:05.479Z,6.90
2022-08-31T02:56:08.364Z,6.07
2022-08-31T03:01:10.953Z,6.33
2022-08-31T03:06:13.648Z,6.00
2022-08-31T03:11:16.755Z,5.77
2022-08-31T03:16:19.453Z,5.80
2022-08-31T03:21:21.811Z,5.33
2022-08-31T03:26:24.559Z,5.87
2022-08-31T03:31:27.094Z,5.67
2022-08-31T03:36:30.613Z,6.13
2022-08-31T03:41:33.492Z,6.27
2022-08-31T03:46:36.205Z,5.63
2022-08-31T03:51:38.810Z,5.93
2022-08-31T03:56:42.190Z,5.57
2022-08-31T04:01:44.604Z,5.27
2022-08-31T04:07:05.494Z,5.30
2022-08-31T04:12:40.192Z,4.93
2022-08-31T04:18:01.728Z,6.17
2022-08-31T04:23:20.191Z,5.00
2022-08-31T04:28:26.957Z,5.90
2022-08-31T04:33:29.260Z,4.47
2022-08-31T04:38:33.259Z,4.57
2022-08-31T04:43:37.203Z,4.93
2022-08-31T04:48:40.436Z,4.77
2022-08-31T04:53:44.414Z,5.07
2022-08-31T04:58:53.078Z,4.40
2022-08-31T05:03:57.092Z,5.40
2022-08-31T05:09:04.164Z,5.00
2022-08-31T05:14:07.369Z,5.30
2022-08-31T05:19:13.917Z,5.47
2022-08-31T05:24:22.737Z,4.80
2022-08-31T05:29:26.418Z,4.70
2022-08-31T05:34:45.808Z,4.53
2022-08-31T05:39:48.231Z,5.60
2022-08-31T05:44:50.661Z,4.23
2022-08-31T05:49:53.129Z,5.60
2022-08-31T05:54:56.933Z,4.60
2022-08-31T05:59:59.194Z,4.60
2022-08-31T06:05:02.375Z,4.70
2022-08-31T06:10:06.027Z,3.97
2022-08-31T06:15:09.898Z,3.70
2022-08-31T06:20:17.007Z,3.40
2022-08-31T06:25:23.801Z,3.63
2022-08-31T06:30:27.739Z,3.80
2022-08-31T06:35:32.156Z,3.17
2022-08-31T06:40:54.688Z,2.27
2022-08-31T06:46:27.096Z,4.13
2022-08-31T06:51:39.126Z,2.53
2022-08-31T06:56:41.565Z,3.00
2022-08-31T07:02:07.680Z,3.00
2022-08-31T07:07:11.704Z,2.40
2022-08-31T07:12:15.823Z,2.37
2022-08-31T07:17:18.220Z,2.33
2022-08-31T07:22:20.625Z,2.07
2022-08-31T07:27:27.709Z,2.10
2022-08-31T07:32:34.392Z,1.70
2022-08-31T07:37:56.004Z,2.00
2022-08-31T07:43:04.866Z,2.07
2022-08-31T07:48:10.507Z,2.40
2022-08-31T07:53:28.642Z,2.27
2022-08-31T07:58:50.379Z,2.23
2022-08-31T08:03:55.116Z,2.07
2022-08-31T08:09:24.923Z,2.00
2022-08-31T08:14:45.989Z,2.00
2022-08-31T08:19:55.169Z,2.07
2022-08-31T08:25:01.320Z,2.00
2022-08-31T08:30:16.592Z,1.95
2022-08-31T08:35:19.713Z,1.83
2022-08-31T08:40:30.661Z,2.60
2022-08-31T08:45:34.171Z,2.30
2022-08-31T08:50:40.094Z,1.83
2022-08-31T08:55:42.941Z,1.77
2022-08-31T09:00:51.459Z,1.57
2022-08-31T09:06:09.851Z,1.80
2022-08-31T09:11:50.353Z,2.00
2022-08-31T09:17:04.447Z,1.80
2022-08-31T09:22:07.342Z,1.90
2022-08-31T09:27:18.462Z,1.90
2022-08-31T09:32:26.661Z,1.50
2022-08-31T09:37:34.404Z,2.13
2022-08-31T09:42:37.077Z,2.00
2022-08-31T09:47:48.835Z,2.07
2022-08-31T09:53:11.448Z,1.70
2022-08-31T09:58:14.671Z,1.67
2022-08-31T10:03:28.658Z,1.90
2022-08-31T10:08:57.299Z,1.67
2022-08-31T10:14:08.934Z,1.60
2022-08-31T10:19:20.847Z,1.57
2022-08-31T10:24:34.809Z,1.40
2022-08-31T10:29:46.373Z,1.20
2022-08-31T10:35:06.184Z,1.33
2022-08-31T10:40:21.946Z,1.02
2022-08-31T10:45:26.665Z,1.50
2022-08-31T10:50:35.887Z,1.10
2022-08-31T10:55:54.298Z,1.10
2022-08-31T11:01:21.266Z,1.10
2022-08-31T11:07:28.165Z,0.93
2022-08-31T11:12:42.784Z,1.33
2022-08-31T11:18:12.494Z,1.00
2022-08-31T11:23:42.199Z,0.97
2022-08-31T11:28:50.395Z,1.07
2022-08-31T11:34:15.115Z,0.70
2022-08-31T11:39:31.315Z,0.90
2022-08-31T11:44:34.368Z,0.90
2022-08-31T11:49:46.968Z,0.70
2022-08-31T11:54:50.633Z,1.27
2022-08-31T11:59:56.397Z,0.80
2022-08-31T12:05:03.372Z,0.70
2022-08-31T12:10:23.012Z,0.60
2022-08-31T12:15:38.204Z,0.50
2022-08-31T12:21:08.160Z,0.57
2022-08-31T12:26:35.444Z,0.87
2022-08-31T12:31:40.505Z,0.83
2022-08-31T12:36:44.020Z,0.90
2022-08-31T12:42:06.551Z,0.80
2022-08-31T12:47:27.716Z,0.70
2022-08-31T12:52:45.764Z,0.60
2022-08-31T12:58:04.644Z,0.80
2022-08-31T13:03:27.304Z,0.70
2022-08-31T13:08:42.224Z,0.63
2022-08-31T13:13:44.665Z,0.70
2022-08-31T13:18:47.198Z,0.60
2022-08-31T13:23:50.854Z,0.70
2022-08-31T13:28:56.479Z,0.60
2022-08-31T13:34:01.436Z,0.73
2022-08-31T13:39:12.549Z,0.50
2022-08-31T13:44:21.564Z,0.80
2022-08-31T13:49:31.175Z,0.63
2022-08-31T13:54:36.149Z,0.53
2022-08-31T13:59:40.082Z,0.40
2022-08-31T14:04:57.498Z,0.50
2022-08-31T14:10:08.209Z,0.60
2022-08-31T14:15:16.099Z,0.80
2022-08-31T14:20:33.977Z,0.60
2022-08-31T14:25:36.336Z,0.50
2022-08-31T14:30:39.330Z,0.60
2022-08-31T14:35:41.865Z,0.40
2022-08-31T14:40:45.020Z,0.70
2022-08-31T14:45:47.844Z,0.60
2022-08-31T14:50:50.205Z,0.53
2022-08-31T14:55:52.470Z,0.50
2022-08-31T15:00:55.112Z,0.60
2022-08-31T15:06:00.386Z,0.40
2022-08-31T15:11:04.179Z,0.50
2022-08-31T15:16:08.417Z,0.80
2022-08-31T15:21:11.854Z,0.40
2022-08-31T15:26:17.353Z,0.40
2022-08-31T15:31:23.967Z,0.50
2022-08-31T15:36:28.193Z,0.50
2022-08-31T15:41:31.348Z,0.70
2022-08-31T15:46:52.272Z,0.40
2022-08-31T15:51:57.793Z,0.40
2022-08-31T15:57:02.645Z,0.43
2022-08-31T16:02:06.721Z,0.40
2022-08-31T16:07:11.381Z,0.50
2022-08-31T16:12:15.158Z,0.60
2022-08-31T16:17:20.216Z,0.50
2022-08-31T16:22:23.401Z,0.87
2022-08-31T16:27:34.327Z,0.60
2022-08-31T16:32:36.917Z,0.60
2022-08-31T16:37:40.390Z,0.60
2022-08-31T16:42:45.026Z,1.00
2022-08-31T16:47:47.479Z,1.13
2022-08-31T16:52:51.306Z,0.70
2022-08-31T16:57:53.811Z,0.60
2022-08-31T17:02:56.180Z,0.60
2022-08-31T17:07:58.680Z,0.90
2022-08-31T17:13:01.073Z,0.63
2022-08-31T17:18:03.467Z,0.60
2022-08-31T17:23:07.163Z,0.70
2022-08-31T17:28:10.339Z,0.70
2022-08-31T17:33:13.022Z,1.50
2022-08-31T17:38:15.539Z,0.60
2022-08-31T17:43:20.318Z,0.60
2022-08-31T17:48:24.083Z,0.57
2022-08-31T17:53:26.630Z,0.60
2022-08-31T17:58:29.195Z,0.60
2022-08-31T18:03:31.678Z,0.50
2022-08-31T18:08:37.863Z,0.67
2022-08-31T18:13:41.893Z,0.60
2022-08-31T18:18:48.499Z,0.50
2022-08-31T18:23:52.722Z,0.60
2022-08-31T18:28:57.944Z,0.83
2022-08-31T18:34:02.115Z,0.50
2022-08-31T18:39:06.824Z,0.77
2022-08-31T18:44:29.011Z,0.70
2022-08-31T18:49:35.716Z,0.73
2022-08-31T18:54:39.939Z,0.50
2022-08-31T18:59:46.365Z,0.60
2022-08-31T19:04:51.136Z,0.60
2022-08-31T19:09:53.949Z,0.80
2022-08-31T19:14:57.699Z,0.70
2022-08-31T19:20:03.597Z,0.60
2022-08-31T19:25:09.333Z,0.90
2022-08-31T19:30:13.982Z,0.50
2022-08-31T19:35:17.881Z,0.50
2022-08-31T19:40:20.430Z,0.70
2022-08-31T19:45:23.611Z,0.50
2022-08-31T19:50:26.806Z,0.53
2022-08-31T19:55:31.482Z,1.10
2022-08-31T20:00:36.326Z,0.50
2022-08-31T20:05:42.396Z,0.60
2022-08-31T20:10:46.184Z,0.47
2022-08-31T20:15:48.633Z,0.60
2022-08-31T20:20:51.225Z,0.60
2022-08-31T20:25:53.578Z,0.60
2022-08-31T20:31:00.202Z,0.50
2022-08-31T20:36:14.241Z,0.67
2022-08-31T20:41:16.807Z,0.60
2022-08-31T20:46:37.514Z,0.80
2022-08-31T20:51:41.183Z,0.60
2022-08-31T20:56:43.839Z,0.50
2022-08-31T21:01:46.330Z,0.67
2022-08-31T21:06:49.215Z,0.50
2022-08-31T21:11:51.727Z,0.67
2022-08-31T21:16:55.769Z,0.60
2022-08-31T21:22:01.086Z,0.50
2022-08-31T21:27:04.227Z,0.50
2022-08-31T21:32:09.196Z,0.60
2022-08-31T21:37:11.638Z,0.50
2022-08-31T21:42:14.080Z,0.70
2022-08-31T21:47:16.497Z,0.60
2022-08-31T21:52:18.759Z,0.60
2022-08-31T21:57:22.565Z,0.80
2022-08-31T22:02:25.135Z,0.50
2022-08-31T22:07:27.585Z,0.60
2022-08-31T22:12:29.828Z,0.60
2022-08-31T22:17:55.846Z,0.70
2022-08-31T22:22:55.494Z,0.80
2022-08-31T22:27:58.159Z,0.60
2022-08-31T22:33:01.364Z,0.50
2022-08-31T22:38:03.737Z,0.50
2022-08-31T22:43:06.229Z,0.93
2022-08-31T22:48:08.629Z,0.50
2022-08-31T22:53:12.404Z,0.70
2022-08-31T22:58:14.736Z,0.60
2022-08-31T23:03:17.339Z,0.60
2022-08-31T23:08:22.661Z,0.50
2022-08-31T23:13:44.870Z,0.60
2022-08-31T23:18:48.711Z,0.50
2022-08-31T23:23:53.349Z,0.57
2022-08-31T23:28:58.119Z,0.67
2022-08-31T23:34:00.380Z,0.70
2022-08-31T23:39:05.159Z,0.40
2022-08-31T23:44:09.490Z,0.50
2022-08-31T23:49:15.323Z,0.70
2022-08-31T23:54:18.584Z,0.60
2022-08-31T23:59:21.114Z,0.57
